LFLN/SYT METAR and TAF weather

Enter ICAO airport designator
Station Type Date Time Source
LFLN METAR 2019/02/23 01:00 UTC NOAA

LFLN 230100Z AUTO 01003KT 9000 NSC 06/04 Q1031


Station Type Date Time Source
LFLN Decoded METAR 2019/02/23 01:00 UTC NOAA

Saint-Yan, France (LFLN) 46-25N 004-01E 244M
Feb 22, 2019 - 08:00 PM EST / 2019.02.23 0100 UTC
Wind: from the N (010 degrees) at 3 MPH (3 KT):0
Visibility: 5 mile(s):0
Temperature: 42 F (6 C)
Dew Point: 39 F (4 C)
Relative Humidity: 86%
Pressure (altimeter): 30.45 in. Hg (1031 hPa)
ob: LFLN 230100Z AUTO 01003KT 9000 NSC 06/04 Q1031
cycle: 1

Station Type Date Time Source
LFLN TAF UTC NOAA

Error!


Example: see airport list